sensor_id;sensor_type;location;lat;lon;timestamp;temperature;humidity
9760;DHT22;4919;48.792;9.202;2022-08-20T00:00:21;20.20;99.90
9760;DHT22;4919;48.792;9.202;2022-08-20T00:02:53;20.20;99.90
9760;DHT22;4919;48.792;9.202;2022-08-20T00:05:30;20.20;99.90
9760;DHT22;4919;48.792;9.202;2022-08-20T00:07:58;20.20;99.90
9760;DHT22;4919;48.792;9.202;2022-08-20T00:10:27;20.20;99.90
9760;DHT22;4919;48.792;9.202;2022-08-20T00:12:54;20.20;99.90
9760;DHT22;4919;48.792;9.202;2022-08-20T00:15:25;20.20;99.90
9760;DHT22;4919;48.792;9.202;2022-08-20T00:17:55;20.20;99.90
9760;DHT22;4919;48.792;9.202;2022-08-20T00:20:26;20.20;99.90
9760;DHT22;4919;48.792;9.202;2022-08-20T00:22:53;20.20;99.90
9760;DHT22;4919;48.792;9.202;2022-08-20T00:25:21;20.20;99.90
9760;DHT22;4919;48.792;9.202;2022-08-20T00:27:48;20.20;99.90
9760;DHT22;4919;48.792;9.202;2022-08-20T00:30:15;20.20;99.90
9760;DHT22;4919;48.792;9.202;2022-08-20T00:35:15;20.20;99.90
9760;DHT22;4919;48.792;9.202;2022-08-20T00:37:42;20.20;99.90
9760;DHT22;4919;48.792;9.202;2022-08-20T00:40:12;20.10;99.90
9760;DHT22;4919;48.792;9.202;2022-08-20T00:42:55;20.20;99.90
9760;DHT22;4919;48.792;9.202;2022-08-20T00:45:28;20.20;99.90
9760;DHT22;4919;48.792;9.202;2022-08-20T00:47:56;20.20;99.90
9760;DHT22;4919;48.792;9.202;2022-08-20T00:50:42;20.20;99.90
9760;DHT22;4919;48.792;9.202;2022-08-20T00:53:08;20.20;99.90
9760;DHT22;4919;48.792;9.202;2022-08-20T00:55:36;20.20;99.90
9760;DHT22;4919;48.792;9.202;2022-08-20T00:58:05;20.20;99.90
9760;DHT22;4919;48.792;9.202;2022-08-20T01:00:44;20.20;99.90
9760;DHT22;4919;48.792;9.202;2022-08-20T01:03:14;20.20;99.90
9760;DHT22;4919;48.792;9.202;2022-08-20T01:05:43;20.20;99.90
9760;DHT22;4919;48.792;9.202;2022-08-20T01:08:11;20.20;99.90
9760;DHT22;4919;48.792;9.202;2022-08-20T01:10:40;20.20;99.90
9760;DHT22;4919;48.792;9.202;2022-08-20T01:13:11;20.20;99.90
9760;DHT22;4919;48.792;9.202;2022-08-20T01:15:41;20.20;99.90
9760;DHT22;4919;48.792;9.202;2022-08-20T01:18:15;20.20;99.90
9760;DHT22;4919;48.792;9.202;2022-08-20T01:20:49;20.20;99.90
9760;DHT22;4919;48.792;9.202;2022-08-20T01:24:00;20.20;99.90
9760;DHT22;4919;48.792;9.202;2022-08-20T01:26:47;20.10;99.90
9760;DHT22;4919;48.792;9.202;2022-08-20T01:29:17;19.90;99.90
9760;DHT22;4919;48.792;9.202;2022-08-20T01:31:45;19.80;99.90
9760;DHT22;4919;48.792;9.202;2022-08-20T01:34:15;19.80;99.90
9760;DHT22;4919;48.792;9.202;2022-08-20T01:36:52;19.80;99.90
9760;DHT22;4919;48.792;9.202;2022-08-20T01:39:25;19.70;99.90
9760;DHT22;4919;48.792;9.202;2022-08-20T01:42:23;19.60;99.90
9760;DHT22;4919;48.792;9.202;2022-08-20T01:44:53;19.60;99.90
9760;DHT22;4919;48.792;9.202;2022-08-20T01:47:29;19.60;99.90
9760;DHT22;4919;48.792;9.202;2022-08-20T01:50:17;19.60;99.90
9760;DHT22;4919;48.792;9.202;2022-08-20T01:53:00;19.60;99.90
9760;DHT22;4919;48.792;9.202;2022-08-20T01:55:30;19.60;99.90
9760;DHT22;4919;48.792;9.202;2022-08-20T01:57:59;19.50;99.90
9760;DHT22;4919;48.792;9.202;2022-08-20T02:00:26;19.50;99.90
9760;DHT22;4919;48.792;9.202;2022-08-20T02:02:53;19.50;99.90
9760;DHT22;4919;48.792;9.202;2022-08-20T02:05:21;19.50;99.90
9760;DHT22;4919;48.792;9.202;2022-08-20T02:07:48;19.50;99.90
9760;DHT22;4919;48.792;9.202;2022-08-20T02:10:17;19.50;99.90
9760;DHT22;4919;48.792;9.202;2022-08-20T02:12:44;19.50;99.90
9760;DHT22;4919;48.792;9.202;2022-08-20T02:15:11;19.40;99.90
9760;DHT22;4919;48.792;9.202;2022-08-20T02:17:39;19.40;99.90
9760;DHT22;4919;48.792;9.202;2022-08-20T02:20:20;19.40;99.90
9760;DHT22;4919;48.792;9.202;2022-08-20T02:22:54;19.40;99.90
9760;DHT22;4919;48.792;9.202;2022-08-20T02:25:24;19.40;99.90
9760;DHT22;4919;48.792;9.202;2022-08-20T02:27:53;19.30;99.90
9760;DHT22;4919;48.792;9.202;2022-08-20T02:30:25;19.30;99.90
9760;DHT22;4919;48.792;9.202;2022-08-20T02:32:55;19.30;99.90
9760;DHT22;4919;48.792;9.202;2022-08-20T02:35:23;19.30;99.90
9760;DHT22;4919;48.792;9.202;2022-08-20T02:37:52;19.30;99.90
9760;DHT22;4919;48.792;9.202;2022-08-20T02:40:22;19.30;99.90
9760;DHT22;4919;48.792;9.202;2022-08-20T02:42:59;19.30;99.90
9760;DHT22;4919;48.792;9.202;2022-08-20T02:45:29;19.30;99.90
9760;DHT22;4919;48.792;9.202;2022-08-20T02:47:56;19.20;99.90
9760;DHT22;4919;48.792;9.202;2022-08-20T02:50:26;19.20;99.90
9760;DHT22;4919;48.792;9.202;2022-08-20T02:52:53;19.20;99.90
9760;DHT22;4919;48.792;9.202;2022-08-20T02:55:21;19.20;99.90
9760;DHT22;4919;48.792;9.202;2022-08-20T02:58:00;19.30;99.90
9760;DHT22;4919;48.792;9.202;2022-08-20T03:00:29;19.20;99.90
9760;DHT22;4919;48.792;9.202;2022-08-20T03:03:05;19.30;99.90
9760;DHT22;4919;48.792;9.202;2022-08-20T03:05:32;19.40;99.90
9760;DHT22;4919;48.792;9.202;2022-08-20T03:07:59;19.30;99.90
9760;DHT22;4919;48.792;9.202;2022-08-20T03:10:31;19.20;99.90
9760;DHT22;4919;48.792;9.202;2022-08-20T03:12:59;19.30;99.90
9760;DHT22;4919;48.792;9.202;2022-08-20T03:15:30;19.30;99.90
9760;DHT22;4919;48.792;9.202;2022-08-20T03:17:57;19.30;99.90
9760;DHT22;4919;48.792;9.202;2022-08-20T03:20:25;19.30;99.90
9760;DHT22;4919;48.792;9.202;2022-08-20T03:22:52;19.20;99.90
9760;DHT22;4919;48.792;9.202;2022-08-20T03:25:19;19.30;99.90
9760;DHT22;4919;48.792;9.202;2022-08-20T03:27:46;19.30;99.90
9760;DHT22;4919;48.792;9.202;2022-08-20T03:30:22;19.30;99.90
9760;DHT22;4919;48.792;9.202;2022-08-20T03:32:50;19.30;99.90
9760;DHT22;4919;48.792;9.202;2022-08-20T03:35:18;19.30;99.90
9760;DHT22;4919;48.792;9.202;2022-08-20T03:37:46;19.30;99.90
9760;DHT22;4919;48.792;9.202;2022-08-20T03:40:18;19.40;99.90
9760;DHT22;4919;48.792;9.202;2022-08-20T03:42:45;19.30;99.90
9760;DHT22;4919;48.792;9.202;2022-08-20T03:45:13;19.30;99.90
9760;DHT22;4919;48.792;9.202;2022-08-20T03:47:46;19.40;99.90
9760;DHT22;4919;48.792;9.202;2022-08-20T03:50:14;19.30;99.90
9760;DHT22;4919;48.792;9.202;2022-08-20T03:52:53;19.30;99.90
9760;DHT22;4919;48.792;9.202;2022-08-20T03:55:21;19.30;99.90
9760;DHT22;4919;48.792;9.202;2022-08-20T03:57:52;19.30;99.90
9760;DHT22;4919;48.792;9.202;2022-08-20T04:00:22;19.20;99.90
9760;DHT22;4919;48.792;9.202;2022-08-20T04:02:49;19.40;99.90
9760;DHT22;4919;48.792;9.202;2022-08-20T04:05:16;19.30;99.90
9760;DHT22;4919;48.792;9.202;2022-08-20T04:07:43;19.30;99.90
9760;DHT22;4919;48.792;9.202;2022-08-20T04:10:11;19.30;99.90
9760;DHT22;4919;48.792;9.202;2022-08-20T04:12:39;19.30;99.90
9760;DHT22;4919;48.792;9.202;2022-08-20T04:15:19;19.30;99.90
9760;DHT22;4919;48.792;9.202;2022-08-20T04:17:48;19.30;99.90
9760;DHT22;4919;48.792;9.202;2022-08-20T04:20:19;19.30;99.90
9760;DHT22;4919;48.792;9.202;2022-08-20T04:22:50;19.30;99.90
9760;DHT22;4919;48.792;9.202;2022-08-20T04:25:26;19.30;99.90
9760;DHT22;4919;48.792;9.202;2022-08-20T04:27:58;19.30;99.90
9760;DHT22;4919;48.792;9.202;2022-08-20T04:30:27;19.30;99.90
9760;DHT22;4919;48.792;9.202;2022-08-20T04:32:54;19.30;99.90
9760;DHT22;4919;48.792;9.202;2022-08-20T04:35:22;19.30;99.90
9760;DHT22;4919;48.792;9.202;2022-08-20T04:38:04;19.30;99.90
9760;DHT22;4919;48.792;9.202;2022-08-20T04:40:34;19.40;99.90
9760;DHT22;4919;48.792;9.202;2022-08-20T04:43:20;19.40;99.90
9760;DHT22;4919;48.792;9.202;2022-08-20T04:45:49;19.50;99.90
9760;DHT22;4919;48.792;9.202;2022-08-20T04:48:19;19.50;99.90
9760;DHT22;4919;48.792;9.202;2022-08-20T04:50:50;19.50;99.90
9760;DHT22;4919;48.792;9.202;2022-08-20T04:53:20;19.50;99.90
9760;DHT22;4919;48.792;9.202;2022-08-20T04:55:53;19.50;99.90
9760;DHT22;4919;48.792;9.202;2022-08-20T04:58:23;19.60;99.90
9760;DHT22;4919;48.792;9.202;2022-08-20T05:00:57;19.60;99.90
9760;DHT22;4919;48.792;9.202;2022-08-20T05:03:27;19.50;99.90
9760;DHT22;4919;48.792;9.202;2022-08-20T05:05:54;19.50;99.90
9760;DHT22;4919;48.792;9.202;2022-08-20T05:08:24;19.50;99.90
9760;DHT22;4919;48.792;9.202;2022-08-20T05:10:52;19.50;99.90
9760;DHT22;4919;48.792;9.202;2022-08-20T05:13:40;19.50;99.90
9760;DHT22;4919;48.792;9.202;2022-08-20T05:16:08;19.50;99.90
9760;DHT22;4919;48.792;9.202;2022-08-20T05:18:35;19.50;99.90
9760;DHT22;4919;48.792;9.202;2022-08-20T05:21:03;19.50;99.90
9760;DHT22;4919;48.792;9.202;2022-08-20T05:23:33;19.50;99.90
9760;DHT22;4919;48.792;9.202;2022-08-20T05:26:01;19.60;99.90
9760;DHT22;4919;48.792;9.202;2022-08-20T05:28:33;19.60;99.90
9760;DHT22;4919;48.792;9.202;2022-08-20T05:31:20;19.50;99.90
9760;DHT22;4919;48.792;9.202;2022-08-20T05:33:47;19.60;99.90
9760;DHT22;4919;48.792;9.202;2022-08-20T05:36:16;19.70;99.90
9760;DHT22;4919;48.792;9.202;2022-08-20T05:38:44;19.60;99.90
9760;DHT22;4919;48.792;9.202;2022-08-20T05:41:15;19.70;99.90
9760;DHT22;4919;48.792;9.202;2022-08-20T05:43:55;19.70;99.90
9760;DHT22;4919;48.792;9.202;2022-08-20T05:46:22;19.70;99.90
9760;DHT22;4919;48.792;9.202;2022-08-20T05:48:49;19.80;99.90
9760;DHT22;4919;48.792;9.202;2022-08-20T05:51:16;19.80;99.90
9760;DHT22;4919;48.792;9.202;2022-08-20T05:53:43;19.80;99.90
9760;DHT22;4919;48.792;9.202;2022-08-20T05:56:10;19.80;99.90
9760;DHT22;4919;48.792;9.202;2022-08-20T05:58:37;19.80;99.90
9760;DHT22;4919;48.792;9.202;2022-08-20T06:01:04;19.80;99.90
9760;DHT22;4919;48.792;9.202;2022-08-20T06:03:31;19.90;99.90
9760;DHT22;4919;48.792;9.202;2022-08-20T06:06:17;19.90;99.90
9760;DHT22;4919;48.792;9.202;2022-08-20T06:09:04;19.90;99.90
9760;DHT22;4919;48.792;9.202;2022-08-20T06:11:31;19.80;99.90
9760;DHT22;4919;48.792;9.202;2022-08-20T06:14:03;19.80;99.90
9760;DHT22;4919;48.792;9.202;2022-08-20T06:16:31;19.80;99.90
9760;DHT22;4919;48.792;9.202;2022-08-20T06:18:58;19.80;99.90
9760;DHT22;4919;48.792;9.202;2022-08-20T06:21:28;19.80;99.90
9760;DHT22;4919;48.792;9.202;2022-08-20T06:23:55;19.80;99.90
9760;DHT22;4919;48.792;9.202;2022-08-20T06:26:27;19.90;99.90
9760;DHT22;4919;48.792;9.202;2022-08-20T06:28:57;19.80;99.90
9760;DHT22;4919;48.792;9.202;2022-08-20T06:31:24;19.80;99.90
9760;DHT22;4919;48.792;9.202;2022-08-20T06:33:53;19.80;99.90
9760;DHT22;4919;48.792;9.202;2022-08-20T06:36:20;19.80;99.90
9760;DHT22;4919;48.792;9.202;2022-08-20T06:38:47;19.80;99.90
9760;DHT22;4919;48.792;9.202;2022-08-20T06:41:13;19.90;99.90
9760;DHT22;4919;48.792;9.202;2022-08-20T06:43:40;19.90;99.90
9760;DHT22;4919;48.792;9.202;2022-08-20T06:46:07;19.90;99.90
9760;DHT22;4919;48.792;9.202;2022-08-20T06:48:34;19.90;99.90
9760;DHT22;4919;48.792;9.202;2022-08-20T06:51:02;19.80;99.90
9760;DHT22;4919;48.792;9.202;2022-08-20T06:53:29;19.90;99.90
9760;DHT22;4919;48.792;9.202;2022-08-20T06:55:57;19.80;99.90
9760;DHT22;4919;48.792;9.202;2022-08-20T06:58:25;19.90;99.90
9760;DHT22;4919;48.792;9.202;2022-08-20T07:01:05;19.90;99.90
9760;DHT22;4919;48.792;9.202;2022-08-20T07:03:39;19.90;99.90
9760;DHT22;4919;48.792;9.202;2022-08-20T07:06:19;19.90;99.90
9760;DHT22;4919;48.792;9.202;2022-08-20T07:08:46;19.90;99.90
9760;DHT22;4919;48.792;9.202;2022-08-20T07:11:13;20.00;99.90
9760;DHT22;4919;48.792;9.202;2022-08-20T07:13:40;20.00;99.90
9760;DHT22;4919;48.792;9.202;2022-08-20T07:16:07;20.00;99.90
9760;DHT22;4919;48.792;9.202;2022-08-20T07:18:34;20.00;99.90
9760;DHT22;4919;48.792;9.202;2022-08-20T07:21:02;20.10;99.90
9760;DHT22;4919;48.792;9.202;2022-08-20T07:23:29;20.00;99.90
9760;DHT22;4919;48.792;9.202;2022-08-20T07:25:57;20.10;99.90
9760;DHT22;4919;48.792;9.202;2022-08-20T07:28:26;20.10;99.90
9760;DHT22;4919;48.792;9.202;2022-08-20T07:30:58;20.10;99.90
9760;DHT22;4919;48.792;9.202;2022-08-20T07:33:46;20.10;99.90
9760;DHT22;4919;48.792;9.202;2022-08-20T07:36:16;20.10;99.90
9760;DHT22;4919;48.792;9.202;2022-08-20T07:38:43;20.10;99.90
9760;DHT22;4919;48.792;9.202;2022-08-20T07:41:13;20.20;99.90
9760;DHT22;4919;48.792;9.202;2022-08-20T07:43:41;20.20;99.90
9760;DHT22;4919;48.792;9.202;2022-08-20T07:46:12;20.30;99.90
9760;DHT22;4919;48.792;9.202;2022-08-20T07:48:41;20.30;99.90
9760;DHT22;4919;48.792;9.202;2022-08-20T07:51:13;20.40;99.90
9760;DHT22;4919;48.792;9.202;2022-08-20T07:53:44;20.50;99.90
9760;DHT22;4919;48.792;9.202;2022-08-20T07:56:15;20.40;99.90
9760;DHT22;4919;48.792;9.202;2022-08-20T07:58:45;20.40;99.90
9760;DHT22;4919;48.792;9.202;2022-08-20T08:01:22;20.50;99.90
9760;DHT22;4919;48.792;9.202;2022-08-20T08:03:51;20.50;99.90
9760;DHT22;4919;48.792;9.202;2022-08-20T08:06:21;20.40;99.90
9760;DHT22;4919;48.792;9.202;2022-08-20T08:09:08;20.40;99.90
9760;DHT22;4919;48.792;9.202;2022-08-20T08:11:37;20.40;99.90
9760;DHT22;4919;48.792;9.202;2022-08-20T08:14:09;20.40;99.90
9760;DHT22;4919;48.792;9.202;2022-08-20T08:16:37;20.30;99.90
9760;DHT22;4919;48.792;9.202;2022-08-20T08:19:07;20.40;99.90
9760;DHT22;4919;48.792;9.202;2022-08-20T08:21:35;20.30;99.90
9760;DHT22;4919;48.792;9.202;2022-08-20T08:24:02;20.30;99.90
9760;DHT22;4919;48.792;9.202;2022-08-20T08:26:29;20.20;99.90
9760;DHT22;4919;48.792;9.202;2022-08-20T08:28:56;20.20;99.90
9760;DHT22;4919;48.792;9.202;2022-08-20T08:31:24;20.20;99.90
9760;DHT22;4919;48.792;9.202;2022-08-20T08:33:51;20.20;99.90
9760;DHT22;4919;48.792;9.202;2022-08-20T08:36:18;20.20;99.90
9760;DHT22;4919;48.792;9.202;2022-08-20T08:38:45;20.20;99.90
9760;DHT22;4919;48.792;9.202;2022-08-20T08:43:52;20.10;99.90
9760;DHT22;4919;48.792;9.202;2022-08-20T08:46:23;20.10;99.90
9760;DHT22;4919;48.792;9.202;2022-08-20T08:48:55;20.20;99.90
9760;DHT22;4919;48.792;9.202;2022-08-20T08:51:32;20.20;99.90
9760;DHT22;4919;48.792;9.202;2022-08-20T08:54:01;20.20;99.90
9760;DHT22;4919;48.792;9.202;2022-08-20T08:56:33;20.30;99.90
9760;DHT22;4919;48.792;9.202;2022-08-20T08:59:06;20.30;99.90
9760;DHT22;4919;48.792;9.202;2022-08-20T09:01:42;20.40;99.90
9760;DHT22;4919;48.792;9.202;2022-08-20T09:04:27;20.40;99.90
9760;DHT22;4919;48.792;9.202;2022-08-20T09:06:58;20.50;99.90
9760;DHT22;4919;48.792;9.202;2022-08-20T09:09:33;20.50;99.90
9760;DHT22;4919;48.792;9.202;2022-08-20T09:14:33;20.40;99.90
9760;DHT22;4919;48.792;9.202;2022-08-20T09:17:01;20.40;99.90
9760;DHT22;4919;48.792;9.202;2022-08-20T09:19:28;20.50;99.90
9760;DHT22;4919;48.792;9.202;2022-08-20T09:21:56;20.60;99.90
9760;DHT22;4919;48.792;9.202;2022-08-20T09:24:23;20.60;99.90
9760;DHT22;4919;48.792;9.202;2022-08-20T09:26:50;20.60;99.90
9760;DHT22;4919;48.792;9.202;2022-08-20T09:29:17;20.70;99.90
9760;DHT22;4919;48.792;9.202;2022-08-20T09:31:44;20.70;99.90
9760;DHT22;4919;48.792;9.202;2022-08-20T09:34:12;20.60;99.90
9760;DHT22;4919;48.792;9.202;2022-08-20T09:36:39;20.70;99.90
9760;DHT22;4919;48.792;9.202;2022-08-20T09:39:06;20.70;99.90
9760;DHT22;4919;48.792;9.202;2022-08-20T09:41:33;20.70;99.90
9760;DHT22;4919;48.792;9.202;2022-08-20T09:44:00;20.70;99.90
9760;DHT22;4919;48.792;9.202;2022-08-20T09:46:28;20.70;99.90
9760;DHT22;4919;48.792;9.202;2022-08-20T09:48:54;20.80;99.90
9760;DHT22;4919;48.792;9.202;2022-08-20T09:51:21;20.80;99.90
9760;DHT22;4919;48.792;9.202;2022-08-20T09:53:49;20.80;99.90
9760;DHT22;4919;48.792;9.202;2022-08-20T09:56:16;20.90;99.90
9760;DHT22;4919;48.792;9.202;2022-08-20T09:58:50;21.00;99.90
9760;DHT22;4919;48.792;9.202;2022-08-20T10:01:19;21.00;99.90
9760;DHT22;4919;48.792;9.202;2022-08-20T10:03:48;21.10;99.90
9760;DHT22;4919;48.792;9.202;2022-08-20T10:06:17;21.20;99.90
9760;DHT22;4919;48.792;9.202;2022-08-20T10:08:46;21.20;99.90
9760;DHT22;4919;48.792;9.202;2022-08-20T10:11:14;21.20;99.90
9760;DHT22;4919;48.792;9.202;2022-08-20T10:13:43;21.20;99.90
9760;DHT22;4919;48.792;9.202;2022-08-20T10:16:10;21.20;99.90
9760;DHT22;4919;48.792;9.202;2022-08-20T10:18:37;21.10;99.90
9760;DHT22;4919;48.792;9.202;2022-08-20T10:21:11;21.10;99.90
9760;DHT22;4919;48.792;9.202;2022-08-20T10:23:38;21.20;99.90
9760;DHT22;4919;48.792;9.202;2022-08-20T10:26:07;21.30;99.90
9760;DHT22;4919;48.792;9.202;2022-08-20T10:28:34;21.30;99.90
9760;DHT22;4919;48.792;9.202;2022-08-20T10:31:04;21.40;99.90
9760;DHT22;4919;48.792;9.202;2022-08-20T10:33:33;21.50;99.90
9760;DHT22;4919;48.792;9.202;2022-08-20T10:36:12;21.50;99.90
9760;DHT22;4919;48.792;9.202;2022-08-20T10:38:39;21.60;99.90
9760;DHT22;4919;48.792;9.202;2022-08-20T10:41:07;21.70;99.90
9760;DHT22;4919;48.792;9.202;2022-08-20T10:43:34;21.60;99.90
9760;DHT22;4919;48.792;9.202;2022-08-20T10:46:01;21.80;99.90
9760;DHT22;4919;48.792;9.202;2022-08-20T10:48:28;21.90;99.90
9760;DHT22;4919;48.792;9.202;2022-08-20T10:50:55;21.90;99.90
9760;DHT22;4919;48.792;9.202;2022-08-20T10:53:22;21.80;99.90
9760;DHT22;4919;48.792;9.202;2022-08-20T10:55:49;21.80;99.90
9760;DHT22;4919;48.792;9.202;2022-08-20T10:58:16;21.90;99.90
9760;DHT22;4919;48.792;9.202;2022-08-20T11:00:45;21.80;99.90
9760;DHT22;4919;48.792;9.202;2022-08-20T11:03:12;21.80;99.90
9760;DHT22;4919;48.792;9.202;2022-08-20T11:05:40;21.80;99.90
9760;DHT22;4919;48.792;9.202;2022-08-20T11:08:06;21.80;99.90
9760;DHT22;4919;48.792;9.202;2022-08-20T11:10:36;21.90;99.90
9760;DHT22;4919;48.792;9.202;2022-08-20T11:13:05;21.90;99.90
9760;DHT22;4919;48.792;9.202;2022-08-20T11:15:35;21.90;99.90
9760;DHT22;4919;48.792;9.202;2022-08-20T11:18:02;21.80;99.90
9760;DHT22;4919;48.792;9.202;2022-08-20T11:20:29;21.80;99.90
9760;DHT22;4919;48.792;9.202;2022-08-20T11:22:58;21.80;99.90
9760;DHT22;4919;48.792;9.202;2022-08-20T11:25:25;21.70;99.90
9760;DHT22;4919;48.792;9.202;2022-08-20T11:27:54;21.60;99.90
9760;DHT22;4919;48.792;9.202;2022-08-20T11:30:24;21.60;99.90
9760;DHT22;4919;48.792;9.202;2022-08-20T11:32:51;21.50;99.90
9760;DHT22;4919;48.792;9.202;2022-08-20T11:35:18;21.60;99.90
9760;DHT22;4919;48.792;9.202;2022-08-20T11:38:09;21.50;99.90
9760;DHT22;4919;48.792;9.202;2022-08-20T11:40:36;21.50;99.90
9760;DHT22;4919;48.792;9.202;2022-08-20T11:43:02;21.60;99.90
9760;DHT22;4919;48.792;9.202;2022-08-20T11:45:41;21.60;99.90
9760;DHT22;4919;48.792;9.202;2022-08-20T11:48:08;21.60;99.90
9760;DHT22;4919;48.792;9.202;2022-08-20T11:50:35;21.60;99.90
9760;DHT22;4919;48.792;9.202;2022-08-20T11:53:02;21.50;99.90
9760;DHT22;4919;48.792;9.202;2022-08-20T11:55:29;21.30;99.90
9760;DHT22;4919;48.792;9.202;2022-08-20T11:57:58;21.30;99.90
9760;DHT22;4919;48.792;9.202;2022-08-20T12:00:27;21.20;99.90
9760;DHT22;4919;48.792;9.202;2022-08-20T12:03:00;21.20;99.90
9760;DHT22;4919;48.792;9.202;2022-08-20T12:05:27;21.10;99.90
9760;DHT22;4919;48.792;9.202;2022-08-20T12:07:56;21.10;99.90
9760;DHT22;4919;48.792;9.202;2022-08-20T12:10:26;21.10;99.90
9760;DHT22;4919;48.792;9.202;2022-08-20T12:12:54;21.20;99.90
9760;DHT22;4919;48.792;9.202;2022-08-20T12:15:23;21.10;99.90
9760;DHT22;4919;48.792;9.202;2022-08-20T12:17:50;21.10;99.90
9760;DHT22;4919;48.792;9.202;2022-08-20T12:20:18;21.20;99.90
9760;DHT22;4919;48.792;9.202;2022-08-20T12:22:45;21.20;99.90
9760;DHT22;4919;48.792;9.202;2022-08-20T12:25:12;21.30;99.90
9760;DHT22;4919;48.792;9.202;2022-08-20T12:27:40;21.30;99.90
9760;DHT22;4919;48.792;9.202;2022-08-20T12:30:11;21.30;99.90
9760;DHT22;4919;48.792;9.202;2022-08-20T12:32:38;21.30;99.90
9760;DHT22;4919;48.792;9.202;2022-08-20T12:35:06;21.30;99.90
9760;DHT22;4919;48.792;9.202;2022-08-20T12:37:34;21.20;99.90
9760;DHT22;4919;48.792;9.202;2022-08-20T12:40:04;21.20;99.90
9760;DHT22;4919;48.792;9.202;2022-08-20T12:42:32;21.10;99.90
9760;DHT22;4919;48.792;9.202;2022-08-20T12:44:59;21.00;99.90
9760;DHT22;4919;48.792;9.202;2022-08-20T12:47:31;20.90;99.90
9760;DHT22;4919;48.792;9.202;2022-08-20T12:50:05;20.70;99.90
9760;DHT22;4919;48.792;9.202;2022-08-20T12:52:33;20.60;99.90
9760;DHT22;4919;48.792;9.202;2022-08-20T12:55:00;20.60;99.90
9760;DHT22;4919;48.792;9.202;2022-08-20T12:57:30;20.50;99.90
9760;DHT22;4919;48.792;9.202;2022-08-20T13:00:00;20.40;99.90
9760;DHT22;4919;48.792;9.202;2022-08-20T13:02:30;20.30;99.90
9760;DHT22;4919;48.792;9.202;2022-08-20T13:04:57;20.30;99.90
9760;DHT22;4919;48.792;9.202;2022-08-20T13:07:31;20.20;99.90
9760;DHT22;4919;48.792;9.202;2022-08-20T13:09:58;20.20;99.90
9760;DHT22;4919;48.792;9.202;2022-08-20T13:12:26;20.10;99.90
9760;DHT22;4919;48.792;9.202;2022-08-20T13:14:53;20.10;99.90
9760;DHT22;4919;48.792;9.202;2022-08-20T13:17:20;20.10;99.90
9760;DHT22;4919;48.792;9.202;2022-08-20T13:20:07;20.10;99.90
9760;DHT22;4919;48.792;9.202;2022-08-20T13:22:36;20.10;99.90
9760;DHT22;4919;48.792;9.202;2022-08-20T13:25:04;20.00;99.90
9760;DHT22;4919;48.792;9.202;2022-08-20T13:27:32;20.00;99.90
9760;DHT22;4919;48.792;9.202;2022-08-20T13:29:58;19.90;99.90
9760;DHT22;4919;48.792;9.202;2022-08-20T13:32:25;20.00;99.90
9760;DHT22;4919;48.792;9.202;2022-08-20T13:34:52;19.90;99.90
9760;DHT22;4919;48.792;9.202;2022-08-20T13:37:22;19.90;99.90
9760;DHT22;4919;48.792;9.202;2022-08-20T13:39:52;20.00;99.90
9760;DHT22;4919;48.792;9.202;2022-08-20T13:42:20;19.90;99.90
9760;DHT22;4919;48.792;9.202;2022-08-20T13:44:47;19.80;99.90
9760;DHT22;4919;48.792;9.202;2022-08-20T13:47:16;19.70;99.90
9760;DHT22;4919;48.792;9.202;2022-08-20T13:49:44;19.60;99.90
9760;DHT22;4919;48.792;9.202;2022-08-20T13:52:11;19.50;99.90
9760;DHT22;4919;48.792;9.202;2022-08-20T13:54:42;19.40;99.90
9760;DHT22;4919;48.792;9.202;2022-08-20T13:57:14;19.30;99.90
9760;DHT22;4919;48.792;9.202;2022-08-20T13:59:46;19.30;99.90
9760;DHT22;4919;48.792;9.202;2022-08-20T14:02:14;19.30;99.90
9760;DHT22;4919;48.792;9.202;2022-08-20T14:04:41;19.20;99.90
9760;DHT22;4919;48.792;9.202;2022-08-20T14:07:26;19.20;99.90
9760;DHT22;4919;48.792;9.202;2022-08-20T14:10:07;19.20;99.90
9760;DHT22;4919;48.792;9.202;2022-08-20T14:12:35;19.40;99.90
9760;DHT22;4919;48.792;9.202;2022-08-20T14:15:03;19.30;99.90
9760;DHT22;4919;48.792;9.202;2022-08-20T14:17:33;19.30;99.90
9760;DHT22;4919;48.792;9.202;2022-08-20T14:20:04;19.30;99.90
9760;DHT22;4919;48.792;9.202;2022-08-20T14:22:34;19.30;99.90
9760;DHT22;4919;48.792;9.202;2022-08-20T14:25:06;19.20;99.90
9760;DHT22;4919;48.792;9.202;2022-08-20T14:27:34;19.30;99.90
9760;DHT22;4919;48.792;9.202;2022-08-20T14:30:04;19.20;99.90
9760;DHT22;4919;48.792;9.202;2022-08-20T14:32:31;19.30;99.90
9760;DHT22;4919;48.792;9.202;2022-08-20T14:34:58;19.20;99.90
9760;DHT22;4919;48.792;9.202;2022-08-20T14:37:31;19.20;99.90
9760;DHT22;4919;48.792;9.202;2022-08-20T14:40:00;19.20;99.90
9760;DHT22;4919;48.792;9.202;2022-08-20T14:42:28;19.20;99.90
9760;DHT22;4919;48.792;9.202;2022-08-20T14:44:56;19.20;99.90
9760;DHT22;4919;48.792;9.202;2022-08-20T14:47:26;19.20;99.90
9760;DHT22;4919;48.792;9.202;2022-08-20T14:49:57;19.20;99.90
9760;DHT22;4919;48.792;9.202;2022-08-20T14:52:30;19.30;99.90
9760;DHT22;4919;48.792;9.202;2022-08-20T14:55:09;19.20;99.90
9760;DHT22;4919;48.792;9.202;2022-08-20T14:57:37;19.20;99.90
9760;DHT22;4919;48.792;9.202;2022-08-20T15:00:07;19.30;99.90
9760;DHT22;4919;48.792;9.202;2022-08-20T15:02:37;19.30;99.90
9760;DHT22;4919;48.792;9.202;2022-08-20T15:05:05;19.30;99.90
9760;DHT22;4919;48.792;9.202;2022-08-20T15:07:41;19.20;99.90
9760;DHT22;4919;48.792;9.202;2022-08-20T15:10:14;19.30;99.90
9760;DHT22;4919;48.792;9.202;2022-08-20T15:12:42;19.30;99.90
9760;DHT22;4919;48.792;9.202;2022-08-20T15:15:10;19.20;99.90
9760;DHT22;4919;48.792;9.202;2022-08-20T15:17:47;19.30;99.90
9760;DHT22;4919;48.792;9.202;2022-08-20T15:20:16;19.30;99.90
9760;DHT22;4919;48.792;9.202;2022-08-20T15:22:47;19.30;99.90
9760;DHT22;4919;48.792;9.202;2022-08-20T15:25:18;19.30;99.90
9760;DHT22;4919;48.792;9.202;2022-08-20T15:27:46;19.30;99.90
9760;DHT22;4919;48.792;9.202;2022-08-20T15:30:19;19.30;99.90
9760;DHT22;4919;48.792;9.202;2022-08-20T15:32:46;19.40;99.90
9760;DHT22;4919;48.792;9.202;2022-08-20T15:35:24;19.40;99.90
9760;DHT22;4919;48.792;9.202;2022-08-20T15:37:54;19.40;99.90
9760;DHT22;4919;48.792;9.202;2022-08-20T15:40:23;19.40;99.90
9760;DHT22;4919;48.792;9.202;2022-08-20T15:42:55;19.40;99.90
9760;DHT22;4919;48.792;9.202;2022-08-20T15:45:23;19.40;99.90
9760;DHT22;4919;48.792;9.202;2022-08-20T15:47:58;19.40;99.90
9760;DHT22;4919;48.792;9.202;2022-08-20T16:01:35;19.50;99.90
9760;DHT22;4919;48.792;9.202;2022-08-20T16:06:59;19.40;99.90
9760;DHT22;4919;48.792;9.202;2022-08-20T16:09:37;19.40;99.90
9760;DHT22;4919;48.792;9.202;2022-08-20T16:12:06;19.40;99.90
9760;DHT22;4919;48.792;9.202;2022-08-20T16:14:37;19.40;99.90
9760;DHT22;4919;48.792;9.202;2022-08-20T16:17:36;19.30;99.90
9760;DHT22;4919;48.792;9.202;2022-08-20T16:20:09;19.30;99.90
9760;DHT22;4919;48.792;9.202;2022-08-20T16:22:41;19.30;99.90
9760;DHT22;4919;48.792;9.202;2022-08-20T16:25:10;19.30;99.90
9760;DHT22;4919;48.792;9.202;2022-08-20T16:28:02;19.40;99.90
9760;DHT22;4919;48.792;9.202;2022-08-20T16:30:37;19.30;99.90
9760;DHT22;4919;48.792;9.202;2022-08-20T16:33:12;19.40;99.90
9760;DHT22;4919;48.792;9.202;2022-08-20T16:35:54;19.40;99.90
9760;DHT22;4919;48.792;9.202;2022-08-20T16:41:23;19.40;99.90
9760;DHT22;4919;48.792;9.202;2022-08-20T16:43:55;19.50;99.90
9760;DHT22;4919;48.792;9.202;2022-08-20T16:46:30;19.50;99.90